Bedford, New Hampshire
Current Conditions -  °F | °C
As of 3:53 PM on Monday 22 Dec 2014 (Local Time) from KMHT Reporting Station
Overcast Overcast  
Wind Chill: 33°   Ceiling: 1600
Heat Index: 37°   Visibility: 10mi
Dew Point: 32°   Wind: 5mph
Humidity: 82%   Direction: 30°NNE
Pressure: 30.31"   Gusts: NA
Location:  42.96°N, 71.49°W
Report Text: KMHT 222053Z 03004KT 10SM OVC016 03/00 A3031 RMK AO2 SLP282 60000 T00280000 56012
Loading
Personal Weather Stations






























Interactive Weather Map New forecast layout! Learn more

10-Day Weather Forecast

Advertisements
Track Severe Weather on mobile